Time;durP1;ratioP1;P1;durP2;ratioP2;P2;SDS_P1;SDS_P2;PMS_P1;PMS_P2;Temp;Humidity;BMP_temperature;BMP_pressure;BME280_temperature;BME280_humidity;BME280_pressure;Samples;Min_cycle;Max_cycle;Signal;HPM_P1;HPM_P2
2023/10/02 00:00:39;;;;;;;4.30;2.35;;;;;;;22.54;50.92;101138.00;4615546;27;21088;-63
2023/10/02 00:02:51;;;;;;;3.58;2.22;;;;;;;22.53;50.49;101137.19;4616711;27;20092;-63
2023/10/02 00:05:07;;;;;;;3.67;2.30;;;;;;;22.55;50.45;101139.72;4614554;27;20038;-63
2023/10/02 00:07:22;;;;;;;3.60;2.30;;;;;;;22.52;50.54;101131.78;4614192;27;20070;-64
2023/10/02 00:09:34;;;;;;;3.83;2.30;;;;;;;22.55;50.61;101142.59;4616890;27;20114;-63
2023/10/02 00:11:45;;;;;;;4.70;2.30;;;;;;;22.49;50.59;101133.34;4614817;27;20035;-63
2023/10/02 00:14:18;;;;;;;4.07;2.40;;;;;;;22.39;50.81;101107.97;4603549;27;20145;-63
2023/10/02 00:16:31;;;;;;;3.60;2.20;;;;;;;22.54;50.47;101141.75;4614373;27;20039;-64
2023/10/02 00:18:41;;;;;;;2.95;2.15;;;;;;;22.52;50.33;101143.28;4614372;27;20111;-64
2023/10/02 00:21:17;;;;;;;3.88;2.60;;;;;;;22.53;50.00;101148.72;4616923;27;20046;-64
2023/10/02 00:23:22;;;;;;;3.85;2.30;;;;;;;22.52;50.29;101140.41;4616720;27;20586;-63
2023/10/02 00:25:51;;;;;;;3.85;2.60;;;;;;;22.48;50.05;101131.66;4614772;27;20085;-63
2023/10/02 00:28:01;;;;;;;5.05;2.40;;;;;;;22.52;50.06;101141.25;4616112;27;20042;-63
2023/10/02 00:30:15;;;;;;;3.85;2.28;;;;;;;22.54;49.81;101146.66;4616617;27;20084;-64
2023/10/02 00:32:31;;;;;;;4.35;2.55;;;;;;;22.47;50.22;101141.47;4615430;27;20027;-64
2023/10/02 00:34:41;;;;;;;4.25;2.58;;;;;;;22.53;50.09;101159.38;4614682;27;20035;-63
2023/10/02 00:36:53;;;;;;;4.05;2.53;;;;;;;22.48;50.02;101145.22;4614720;27;20488;-63
2023/10/02 00:41:33;;;;;;;4.07;2.50;;;;;;;22.51;50.46;101151.06;4616658;27;20641;-63
2023/10/02 00:43:45;;;;;;;3.45;2.10;;;;;;;22.51;50.63;101150.22;4615124;27;20118;-63
2023/10/02 00:45:58;;;;;;;3.33;2.15;;;;;;;22.51;49.97;101151.06;4615826;27;20065;-63
2023/10/02 00:48:25;;;;;;;4.40;2.53;;;;;;;22.50;50.27;101146.50;4613105;27;20031;-63
2023/10/02 00:50:49;;;;;;;4.88;2.75;;;;;;;22.51;49.94;101145.31;4614350;27;20582;-63
2023/10/02 00:53:03;;;;;;;4.15;2.33;;;;;;;22.52;49.61;101143.28;4616843;27;20035;-63
2023/10/02 00:55:16;;;;;;;4.53;2.55;;;;;;;22.51;49.84;101144.47;4619440;27;20027;-64
2023/10/02 00:57:27;;;;;;;4.32;2.50;;;;;;;22.51;49.66;101145.31;4617986;27;20625;-63
2023/10/02 00:59:38;;;;;;;3.72;2.45;;;;;;;22.52;49.70;101143.28;4618127;27;20024;-63
2023/10/02 01:01:49;;;;;;;3.70;2.38;;;;;;;22.52;49.86;101140.41;4618528;27;20550;-63
2023/10/02 01:04:09;;;;;;;3.97;2.50;;;;;;;22.49;49.86;101135.38;4615694;27;20066;-63
2023/10/02 01:06:21;;;;;;;4.20;2.50;;;;;;;22.51;50.16;101136.69;4617809;27;20026;-63
2023/10/02 01:08:46;;;;;;;3.50;2.28;;;;;;;22.49;50.03;101141.13;4618479;27;20788;-63
2023/10/02 01:10:59;;;;;;;3.75;2.50;;;;;;;22.51;49.80;101138.72;4618465;27;20031;-63
2023/10/02 01:13:10;;;;;;;3.97;2.40;;;;;;;22.49;49.92;101141.97;4618333;27;20027;-63
2023/10/02 01:15:26;;;;;;;3.13;2.10;;;;;;;22.49;49.57;101147.72;4617465;27;20062;-63
2023/10/02 01:17:39;;;;;;;3.78;2.40;;;;;;;22.41;49.42;101133.47;4619027;27;20613;-63
2023/10/02 01:19:53;;;;;;;5.13;2.53;;;;;;;22.50;49.48;101139.94;4616425;27;20034;-64
2023/10/02 01:22:04;;;;;;;4.05;2.50;;;;;;;22.43;49.68;101137.69;4618247;27;20904;-63
2023/10/02 01:24:17;;;;;;;4.32;2.60;;;;;;;22.42;49.74;101129.44;4618627;27;20592;-63
2023/10/02 01:26:28;;;;;;;3.83;2.38;;;;;;;22.46;49.48;101134.06;4619976;27;20031;-63
2023/10/02 01:28:51;;;;;;;4.65;2.55;;;;;;;22.48;49.26;101133.69;4618584;27;20040;-63
2023/10/02 01:31:31;;;;;;;3.97;2.22;;;;;;;22.47;49.27;101134.91;4601661;27;20571;-63
2023/10/02 01:33:32;;;;;;;3.58;2.30;;;;;;;22.43;49.53;101120.44;4619059;27;20372;-63
2023/10/02 01:35:56;;;;;;;3.95;2.50;;;;;;;22.49;49.42;101126.72;4619033;27;20047;-63
2023/10/02 01:38:14;;;;;;;3.72;2.47;;;;;;;22.49;49.44;101129.63;4617710;27;20855;-63
2023/10/02 01:40:33;;;;;;;3.83;2.50;;;;;;;22.42;49.49;101118.72;4618052;27;20031;-63
2023/10/02 01:42:44;;;;;;;3.63;2.47;;;;;;;22.45;49.46;101115.16;4619087;27;20028;-63
2023/10/02 01:44:55;;;;;;;4.25;2.10;;;;;;;22.47;49.61;101124.22;4615988;27;20031;-63
2023/10/02 01:47:05;;;;;;;3.47;2.30;;;;;;;22.37;49.23;101110.41;4618884;27;20487;-63
2023/10/02 01:49:26;;;;;;;3.35;2.20;;;;;;;22.47;49.26;101126.28;4617587;27;20066;-63
2023/10/02 01:51:37;;;;;;;4.53;2.60;;;;;;;22.49;49.60;101132.47;4617404;27;20131;-63
2023/10/02 01:53:55;;;;;;;3.88;2.40;;;;;;;22.48;49.62;101127.94;4618454;27;20141;-63
2023/10/02 01:56:11;;;;;;;3.83;2.35;;;;;;;22.46;49.42;101125.44;4606553;27;20047;-63
2023/10/02 01:58:23;;;;;;;3.20;2.00;;;;;;;22.46;49.42;101130.34;4619040;27;20136;-63
2023/10/02 02:00:34;;;;;;;4.50;2.47;;;;;;;22.44;49.01;101115.53;4617870;27;20082;-63
2023/10/02 02:03:14;;;;;;;3.72;2.20;;;;;;;22.42;49.15;101118.72;4617499;27;20019;-63
2023/10/02 02:05:15;;;;;;;3.58;2.20;;;;;;;22.46;49.52;101124.59;4615215;27;20658;-63
2023/10/02 02:07:26;;;;;;;3.78;2.40;;;;;;;22.46;49.54;101119.69;4616826;27;20104;-63
2023/10/02 02:09:37;;;;;;;3.75;2.20;;;;;;;22.46;49.33;101122.56;4617501;27;20019;-63
2023/10/02 02:12:05;;;;;;;4.63;2.45;;;;;;;22.41;49.26;101110.47;4617758;27;20422;-64
2023/10/02 02:14:18;;;;;;;3.88;2.40;;;;;;;22.44;48.92;101110.59;4616748;27;20074;-64
2023/10/02 02:16:35;;;;;;;4.50;2.28;;;;;;;22.42;48.91;101112.16;4607505;27;20036;-63
2023/10/02 02:18:48;;;;;;;3.80;2.60;;;;;;;22.33;48.95;101097.09;4616452;27;20026;-63
2023/10/02 02:20:59;;;;;;;4.32;2.50;;;;;;;22.44;48.99;101110.59;4617682;27;20043;-63
2023/10/02 02:23:14;;;;;;;3.65;2.13;;;;;;;22.44;48.93;101107.69;4617642;27;20039;-63
2023/10/02 02:25:26;;;;;;;4.10;2.42;;;;;;;22.41;48.89;101104.72;4616654;27;20108;-63
2023/10/02 02:27:36;;;;;;;3.83;2.35;;;;;;;22.40;49.02;101098.16;4615178;27;20062;-64
2023/10/02 02:29:48;;;;;;;4.13;2.17;;;;;;;22.45;49.00;101117.19;4616881;27;20115;-64
2023/10/02 02:31:59;;;;;;;3.78;2.13;;;;;;;22.40;49.24;101108.81;4616593;27;20575;-63
2023/10/02 02:34:14;;;;;;;4.18;2.22;;;;;;;22.45;49.25;101120.06;4618406;27;20092;-63
2023/10/02 02:36:34;;;;;;;3.45;2.30;;;;;;;22.44;49.04;101110.59;4617610;27;20094;-63
2023/10/02 02:38:44;;;;;;;4.03;2.30;;;;;;;22.43;48.63;101108.06;4618207;27;20036;-63
2023/10/02 02:41:05;;;;;;;3.92;2.30;;;;;;;22.43;48.92;101103.16;4617142;27;20028;-64
2023/10/02 02:43:19;;;;;;;3.45;2.17;;;;;;;22.39;48.93;101098.53;4616430;27;20038;-63
2023/10/02 02:45:29;;;;;;;2.95;1.98;;;;;;;22.41;48.80;101101.84;4617059;27;20084;-63
2023/10/02 02:47:51;;;;;;;3.53;2.35;;;;;;;22.43;48.65;101110.94;4619980;27;20042;-63
2023/10/02 02:50:01;;;;;;;3.85;2.13;;;;;;;22.42;48.86;101109.28;4617860;27;20038;-63
2023/10/02 02:52:12;;;;;;;4.15;2.30;;;;;;;22.41;48.81;101104.72;4617223;27;20507;-64
2023/10/02 02:54:25;;;;;;;4.03;2.33;;;;;;;22.40;48.96;101103.06;4617187;27;20023;-64
2023/10/02 02:56:35;;;;;;;3.70;2.17;;;;;;;22.38;48.70;101093.94;4616671;27;20045;-63
2023/10/02 02:58:50;;;;;;;3.97;2.55;;;;;;;22.43;48.71;101103.16;4616458;27;20037;-63
2023/10/02 03:01:00;;;;;;;4.22;2.60;;;;;;;22.43;48.70;101099.44;4622299;27;20163;-63
2023/10/02 03:05:41;;;;;;;3.47;2.30;;;;;;;22.41;48.49;101091.19;4616520;27;20031;-63
2023/10/02 03:07:56;;;;;;;3.85;2.20;;;;;;;22.42;48.56;101092.84;4616741;27;20824;-64
2023/10/02 03:10:10;;;;;;;3.53;2.33;;;;;;;22.39;48.60;101092.78;4617212;27;20534;-63
2023/10/02 03:12:22;;;;;;;2.67;1.90;;;;;;;22.36;48.91;101091.44;4616570;27;20043;-64
2023/10/02 03:14:34;;;;;;;3.50;2.22;;;;;;;22.42;48.70;101100.66;4616703;27;20159;-63
2023/10/02 03:16:45;;;;;;;4.45;2.35;;;;;;;22.39;48.59;101082.06;4614931;27;20050;-63
2023/10/02 03:18:55;;;;;;;3.42;2.10;;;;;;;22.30;48.89;101077.69;4618121;27;20031;-63
2023/10/02 03:21:14;;;;;;;3.38;1.95;;;;;;;22.36;48.42;101079.94;4615518;27;20036;-64
2023/10/02 03:23:30;;;;;;;3.90;2.40;;;;;;;22.41;48.59;101087.47;4617425;27;20081;-63
2023/10/02 03:25:40;;;;;;;3.90;2.28;;;;;;;22.40;48.16;101094.44;4615380;27;20039;-63
2023/10/02 03:27:51;;;;;;;3.67;2.10;;;;;;;22.38;48.55;101088.19;4616613;27;20018;-63
2023/10/02 03:30:06;;;;;;;4.30;2.47;;;;;;;22.39;48.25;101084.94;4613775;27;20035;-63
2023/10/02 03:32:16;;;;;;;4.47;2.17;;;;;;;22.40;48.50;101094.44;4614757;27;20037;-64
2023/10/02 03:34:30;;;;;;;4.28;2.58;;;;;;;22.37;48.84;101086.53;4617001;27;20027;-64
2023/10/02 03:36:40;;;;;;;3.10;2.30;;;;;;;22.38;48.65;101091.94;4615797;27;20050;-63
2023/10/02 03:38:51;;;;;;;3.08;2.05;;;;;;;22.40;48.74;101101.03;4616100;27;20435;-63
2023/10/02 03:41:02;;;;;;;4.00;2.50;;;;;;;22.36;48.69;101088.56;4616673;27;20031;-63
2023/10/02 03:43:29;;;;;;;4.10;2.30;;;;;;;22.39;48.90;101092.78;4616912;27;20035;-63
2023/10/02 03:45:39;;;;;;;3.50;2.10;;;;;;;22.39;48.56;101092.78;4616762;27;20046;-64
2023/10/02 03:48:01;;;;;;;3.38;2.28;;;;;;;22.37;48.92;101086.53;4616041;27;20879;-64
2023/10/02 03:50:12;;;;;;;4.13;2.30;;;;;;;22.38;48.59;101088.19;4617061;27;20031;-63
2023/10/02 03:52:23;;;;;;;3.88;2.20;;;;;;;22.34;48.47;101076.63;4616643;27;20127;-63
2023/10/02 03:54:34;;;;;;;4.13;2.50;;;;;;;22.36;48.79;101077.06;4613278;27;20106;-63
2023/10/02 03:56:49;;;;;;;3.70;2.30;;;;;;;22.39;48.78;101081.25;4615401;27;20138;-64
2023/10/02 03:59:00;;;;;;;3.80;2.22;;;;;;;22.36;48.54;101074.19;4617530;27;20789;-64
2023/10/02 04:01:10;;;;;;;4.10;2.08;;;;;;;22.33;48.72;101059.69;4615789;27;20036;-63
2023/10/02 04:03:21;;;;;;;3.55;2.10;;;;;;;22.37;48.39;101066.41;4616889;27;20038;-64
2023/10/02 04:07:50;;;;;;;3.63;2.17;;;;;;;22.36;48.25;101067.63;4616724;27;20157;-64
2023/10/02 04:10:06;;;;;;;3.42;2.10;;;;;;;22.38;48.70;101068.91;4616676;27;20129;-64
2023/10/02 04:12:22;;;;;;;3.92;2.30;;;;;;;22.36;48.55;101071.31;4615748;27;20023;-63
2023/10/02 04:14:33;;;;;;;4.07;2.25;;;;;;;22.37;48.05;101067.25;4615828;27;20042;-63
2023/10/02 04:17:08;;;;;;;3.67;2.00;;;;;;;22.34;48.25;101058.53;4614018;27;21593;-64
2023/10/02 04:19:25;;;;;;;3.78;2.10;;;;;;;22.32;48.03;101055.16;4613073;27;20062;-63
2023/10/02 04:21:37;;;;;;;3.53;2.10;;;;;;;22.35;47.92;101057.31;4615473;27;20031;-64
2023/10/02 04:23:47;;;;;;;3.63;2.08;;;;;;;22.34;47.89;101049.88;4613798;27;20046;-63
2023/10/02 04:25:57;;;;;;;3.72;2.20;;;;;;;22.35;48.03;101061.03;4598057;27;20035;-63
2023/10/02 04:28:08;;;;;;;3.50;1.98;;;;;;;22.35;47.99;101055.28;4614502;27;20050;-64
2023/10/02 04:30:25;;;;;;;4.10;2.10;;;;;;;22.32;47.86;101052.28;4616937;27;20096;-63
2023/10/02 04:32:36;;;;;;;3.97;2.10;;;;;;;22.34;48.01;101055.66;4617476;27;20116;-63
2023/10/02 04:34:50;;;;;;;3.83;2.00;;;;;;;22.32;47.87;101047.38;4614953;27;20027;-64
2023/10/02 04:37:19;;;;;;;2.80;1.92;;;;;;;22.37;47.90;101054.91;4615861;27;20039;-63
2023/10/02 04:42:09;;;;;;;3.72;2.22;;;;;;;22.34;47.77;101064.28;4615457;27;20107;-64
2023/10/02 04:44:18;;;;;;;3.47;2.08;;;;;;;22.34;47.96;101059.38;4612902;27;20036;-64
2023/10/02 04:46:32;;;;;;;3.40;1.90;;;;;;;22.32;48.15;101056.00;4612426;27;20054;-63
2023/10/02 04:48:45;;;;;;;3.05;2.00;;;;;;;22.33;47.76;101062.56;4613333;27;20172;-64
2023/10/02 04:50:56;;;;;;;3.08;1.98;;;;;;;22.34;47.65;101061.41;4614865;27;20543;-64
2023/10/02 04:55:28;;;;;;;4.13;2.15;;;;;;;22.30;47.69;101048.94;4614267;27;20039;-64
2023/10/02 04:57:41;;;;;;;3.67;2.10;;;;;;;22.34;48.00;101058.53;4620398;27;20039;-63
2023/10/02 04:59:51;;;;;;;3.25;1.90;;;;;;;22.33;47.93;101062.56;4615410;27;20770;-64
2023/10/02 05:02:24;;;;;;;3.38;1.80;;;;;;;22.31;47.80;101054.31;4614208;27;20464;-64
2023/10/02 05:04:34;;;;;;;4.47;2.30;;;;;;;22.31;47.56;101060.06;4614261;27;20092;-63
2023/10/02 05:06:52;;;;;;;3.72;2.28;;;;;;;22.31;48.12;101051.44;4614590;27;20089;-63
2023/10/02 05:11:26;;;;;;;3.28;2.03;;;;;;;22.29;47.50;101044.41;4614445;27;20484;-64
2023/10/02 05:13:59;;;;;;;3.00;1.88;;;;;;;22.32;47.63;101049.41;4615950;27;20504;-64
2023/10/02 05:16:12;;;;;;;3.78;2.10;;;;;;;22.29;48.22;101045.25;4614116;27;20809;-64
2023/10/02 05:18:22;;;;;;;3.35;1.80;;;;;;;22.32;48.17;101055.16;4614418;27;20046;-64
2023/10/02 05:20:38;;;;;;;3.38;2.10;;;;;;;22.30;47.95;101051.81;4614779;27;20025;-64
2023/10/02 05:22:58;;;;;;;3.72;2.10;;;;;;;22.27;48.24;101052.56;4620808;27;20030;-64
2023/10/02 05:25:10;;;;;;;3.97;2.10;;;;;;;22.30;47.86;101057.56;4615501;27;20062;-64
2023/10/02 05:27:29;;;;;;;2.95;1.92;;;;;;;22.30;48.23;101057.56;4616065;27;21304;-64
2023/10/02 05:29:41;;;;;;;4.38;2.17;;;;;;;22.30;47.87;101051.81;4614701;27;20058;-64
2023/10/02 05:31:51;;;;;;;3.40;2.35;;;;;;;22.31;47.80;101050.63;4613910;27;20133;-64
2023/10/02 05:34:16;;;;;;;2.97;2.00;;;;;;;22.30;47.82;101043.19;4600683;27;20133;-64
2023/10/02 05:36:29;;;;;;;4.00;2.00;;;;;;;22.30;47.82;101043.19;4615085;27;20057;-64
2023/10/02 05:39:04;;;;;;;4.05;2.10;;;;;;;22.29;47.82;101053.88;4613357;27;20019;-64
2023/10/02 05:41:12;;;;;;;3.58;2.17;;;;;;;22.31;48.03;101053.50;4617880;27;20134;-64
2023/10/02 05:43:22;;;;;;;4.13;2.25;;;;;;;22.29;47.97;101050.16;4619832;27;21230;-64
2023/10/02 05:47:56;;;;;;;3.45;1.80;;;;;;;22.29;48.09;101055.91;4617623;27;20432;-64
2023/10/02 05:50:07;;;;;;;3.53;2.10;;;;;;;22.28;48.30;101055.06;4617875;27;20047;-64
2023/10/02 05:52:18;;;;;;;4.55;1.95;;;;;;;22.30;48.05;101055.53;4617677;27;20035;-64
2023/10/02 05:54:29;;;;;;;4.30;2.40;;;;;;;22.29;48.21;101050.16;4618717;27;20070;-64
2023/10/02 05:56:40;;;;;;;3.22;2.03;;;;;;;22.29;47.85;101053.03;4616574;27;20464;-64
2023/10/02 05:58:55;;;;;;;2.92;2.03;;;;;;;22.26;47.75;101051.75;4615284;27;20073;-65
2023/10/02 06:01:34;;;;;;;3.03;1.98;;;;;;;22.26;48.10;101062.41;4618506;27;20125;-64
2023/10/02 06:03:56;;;;;;;2.75;1.95;;;;;;;22.28;48.38;101065.75;4617434;27;20035;-64
2023/10/02 06:06:21;;;;;;;3.17;2.13;;;;;;;22.23;48.41;101063.13;4618497;27;20035;-64
2023/10/02 06:08:33;;;;;;;3.90;2.10;;;;;;;22.23;48.39;101057.38;4618417;27;20039;-64
2023/10/02 06:10:44;;;;;;;4.55;2.40;;;;;;;22.29;48.34;101067.41;4617122;27;20031;-64
2023/10/02 06:13:05;;;;;;;3.67;1.98;;;;;;;22.29;48.35;101067.41;4618308;27;20775;-64
2023/10/02 06:16:17;;;;;;;3.72;1.92;;;;;;;22.29;48.67;101076.03;4617107;27;20834;-64
2023/10/02 06:17:58;;;;;;;3.08;2.03;;;;;;;22.27;48.85;101067.78;4602652;27;20047;-64
2023/10/02 06:20:17;;;;;;;4.15;2.20;;;;;;;22.27;48.59;101075.56;4632635;27;20077;-64
2023/10/02 06:22:28;;;;;;;3.50;2.10;;;;;;;22.28;49.21;101077.25;4617459;27;20035;-64
2023/10/02 06:24:38;;;;;;;3.25;2.10;;;;;;;22.29;49.11;101087.53;4616959;27;20035;-64
2023/10/02 06:26:58;;;;;;;3.30;2.00;;;;;;;22.22;49.36;101079.53;4632846;27;20103;-64
2023/10/02 06:29:16;;;;;;;4.60;2.40;;;;;;;22.26;49.18;101086.25;4615803;27;20036;-64
2023/10/02 06:31:40;;;;;;;4.15;2.50;;;;;;;22.29;48.81;101090.41;4616567;27;20039;-64
2023/10/02 06:33:52;;;;;;;4.03;2.30;;;;;;;22.25;49.17;101090.31;4616753;27;20031;-64
2023/10/02 06:36:09;;;;;;;4.18;2.33;;;;;;;22.29;49.49;101099.03;4617357;27;20461;-64
2023/10/02 06:38:20;;;;;;;3.60;2.30;;;;;;;22.25;49.90;101089.50;4619121;27;20039;-64
2023/10/02 06:40:30;;;;;;;4.28;2.50;;;;;;;22.28;49.85;101097.38;4617287;27;20361;-64
2023/10/02 06:42:48;;;;;;;4.22;2.28;;;;;;;22.25;49.98;101092.38;4599103;27;20534;-64
2023/10/02 06:45:01;;;;;;;4.25;2.50;;;;;;;22.27;50.57;101108.03;4616826;27;20027;-64
2023/10/02 06:47:13;;;;;;;4.03;2.30;;;;;;;22.28;50.27;101106.00;4616585;27;20892;-65
2023/10/02 06:49:23;;;;;;;3.80;2.33;;;;;;;22.27;50.43;101112.94;4605040;27;20024;-65
2023/10/02 06:51:34;;;;;;;4.50;2.30;;;;;;;22.27;50.68;101104.31;4617862;27;20032;-64
2023/10/02 06:53:44;;;;;;;3.78;2.30;;;;;;;22.23;50.96;101105.06;4617921;27;20039;-64
2023/10/02 06:56:06;;;;;;;4.10;2.50;;;;;;;22.28;50.94;101106.81;4616160;27;20131;-64
2023/10/02 06:58:17;;;;;;;4.28;2.40;;;;;;;22.28;51.17;101117.50;4617220;27;20121;-64
2023/10/02 07:00:54;;;;;;;4.13;2.42;;;;;;;22.26;51.25;101100.63;4616886;27;20031;-64
2023/10/02 07:02:58;;;;;;;6.53;2.67;;;;;;;22.21;51.37;101098.81;4632639;27;20130;-64
2023/10/02 07:05:10;;;;;;;3.83;2.20;;;;;;;22.27;51.70;101101.44;4615850;27;20026;-64
2023/10/02 07:07:25;;;;;;;3.85;2.30;;;;;;;22.25;51.40;101098.13;4617859;27;20038;-63
2023/10/02 07:09:36;;;;;;;4.90;2.38;;;;;;;22.18;52.32;101090.94;4617504;27;20110;-64
2023/10/02 07:11:47;;;;;;;3.60;2.30;;;;;;;22.26;52.53;101102.66;4617414;27;20558;-64
2023/10/02 07:14:03;;;;;;;4.18;2.67;;;;;;;22.27;52.34;101098.56;4616588;27;20027;-64
2023/10/02 07:16:17;;;;;;;4.28;2.20;;;;;;;22.26;52.98;101094.03;4632050;27;20083;-64
2023/10/02 07:18:38;;;;;;;3.92;2.60;;;;;;;22.28;52.92;101097.38;4616629;27;20035;-64
2023/10/02 07:20:53;;;;;;;3.75;2.33;;;;;;;22.26;53.34;101102.66;4615644;27;20046;-65
2023/10/02 07:23:09;;;;;;;4.50;2.53;;;;;;;22.25;53.52;101095.25;4616100;27;20038;-64
2023/10/02 07:25:24;;;;;;;4.03;2.17;;;;;;;22.27;54.02;101101.44;4616907;27;20031;-64
2023/10/02 07:27:37;;;;;;;3.83;2.38;;;;;;;22.28;54.32;101106.00;4615972;27;20072;-64
2023/10/02 07:29:47;;;;;;;3.50;2.17;;;;;;;22.19;54.13;101088.91;4631876;27;20046;-64
2023/10/02 07:31:57;;;;;;;4.25;2.42;;;;;;;22.28;54.25;101103.13;4616323;27;20520;-65
2023/10/02 07:34:08;;;;;;;4.22;2.53;;;;;;;22.23;54.09;101091.88;4597259;27;20040;-65
2023/10/02 07:36:18;;;;;;;4.40;2.40;;;;;;;22.26;54.41;101088.28;4614789;27;20071;-65
2023/10/02 07:38:32;;;;;;;3.38;2.05;;;;;;;22.28;54.46;101094.50;4615103;27;21046;-65
2023/10/02 07:40:49;;;;;;;3.70;2.13;;;;;;;22.27;54.84;101101.44;4604152;27;20557;-63
2023/10/02 07:43:00;;;;;;;3.35;2.20;;;;;;;22.27;54.82;101099.41;4617312;27;20078;-63
2023/10/02 07:45:11;;;;;;;4.20;2.60;;;;;;;22.28;55.08;101095.31;4617116;27;20071;-63
2023/10/02 07:47:22;;;;;;;3.75;2.42;;;;;;;22.29;55.09;101094.13;4616615;27;20456;-63
2023/10/02 07:49:32;;;;;;;4.25;2.35;;;;;;;22.28;55.42;101091.63;4617879;27;20042;-65
2023/10/02 07:51:44;;;;;;;4.38;2.40;;;;;;;22.27;55.80;101092.81;4616504;27;20174;-64
2023/10/02 07:53:56;;;;;;;3.83;2.35;;;;;;;22.29;55.72;101107.66;4616023;27;21278;-63
2023/10/02 07:56:11;;;;;;;4.68;2.53;;;;;;;22.28;55.34;101091.63;4615354;27;20038;-63
2023/10/02 07:58:22;;;;;;;4.45;2.50;;;;;;;22.26;55.78;101086.25;4616220;27;20031;-63
2023/10/02 08:00:39;;;;;;;4.15;2.25;;;;;;;22.28;56.25;101088.75;4616548;27;20023;-63
2023/10/02 08:02:51;;;;;;;3.90;2.60;;;;;;;22.21;56.66;101067.19;4615787;27;20601;-63
2023/10/02 08:05:03;;;;;;;5.05;2.78;;;;;;;22.28;57.16;101077.25;4616544;27;20035;-63
2023/10/02 08:07:14;;;;;;;3.97;2.60;;;;;;;22.31;57.64;101083.06;4616812;27;20042;-63
2023/10/02 08:09:38;;;;;;;4.30;2.38;;;;;;;22.27;57.24;101076.41;4615784;27;20628;-63
2023/10/02 08:11:53;;;;;;;3.88;2.53;;;;;;;22.30;57.46;101084.28;4615975;27;20031;-63
2023/10/02 08:14:05;;;;;;;4.65;2.70;;;;;;;22.27;57.29;101081.31;4614959;27;20376;-63
2023/10/02 08:16:17;;;;;;;4.10;2.38;;;;;;;22.25;57.08;101078.00;4614252;27;20055;-63
2023/10/02 08:18:28;;;;;;;4.00;2.40;;;;;;;22.29;57.23;101081.78;4617001;27;21428;-63
2023/10/02 08:20:38;;;;;;;4.38;2.50;;;;;;;22.29;57.50;101067.41;4615053;27;20027;-63
2023/10/02 08:22:51;;;;;;;4.55;2.50;;;;;;;22.30;57.52;101063.31;4617658;27;20050;-63
2023/10/02 08:25:02;;;;;;;4.47;2.67;;;;;;;22.25;57.52;101060.75;4616909;27;20124;-63
2023/10/02 08:27:14;;;;;;;4.47;2.60;;;;;;;22.31;56.92;101065.00;4616145;27;20889;-63
2023/10/02 08:29:27;;;;;;;4.20;2.47;;;;;;;22.30;57.08;101066.19;4615916;27;20699;-64
2023/10/02 08:31:44;;;;;;;4.68;2.45;;;;;;;22.30;57.45;101071.94;4617005;27;20134;-63
2023/10/02 08:34:03;;;;;;;;;;;;;;;22.30;57.29;101072.78;4616263;27;20030;-64
2023/10/02 08:36:15;;;;;;;4.80;2.67;;;;;;;22.29;57.25;101076.88;4616555;27;20902;-63
2023/10/02 08:38:26;;;;;;;4.65;2.33;;;;;;;22.31;57.80;101079.38;4614689;27;20035;-63
2023/10/02 08:40:40;;;;;;;4.50;2.58;;;;;;;22.29;57.53;101078.91;4615499;27;20034;-63
2023/10/02 08:42:52;;;;;;;4.07;2.35;;;;;;;22.32;57.93;101086.81;4616094;27;20035;-63
2023/10/02 08:45:04;;;;;;;4.15;2.50;;;;;;;22.28;57.54;101077.25;4615287;27;20813;-63
2023/10/02 08:47:24;;;;;;;4.40;2.58;;;;;;;22.29;57.30;101079.75;4615813;27;20095;-63
2023/10/02 08:49:36;;;;;;;5.07;2.90;;;;;;;22.24;57.41;101074.25;4614006;27;20036;-63
2023/10/02 08:51:49;;;;;;;4.10;2.60;;;;;;;22.26;57.26;101068.16;4614849;27;20154;-63
2023/10/02 08:54:04;;;;;;;5.18;2.75;;;;;;;22.31;56.74;101070.75;4617054;27;20043;-63
2023/10/02 08:56:24;;;;;;;4.43;2.67;;;;;;;22.27;56.60;101058.31;4603881;27;20043;-63
2023/10/02 08:58:35;;;;;;;4.93;2.60;;;;;;;22.27;56.86;101064.06;4615740;27;20039;-63
2023/10/02 09:01:17;;;;;;;5.22;2.90;;;;;;;22.30;56.85;101063.31;4616186;27;20026;-63
2023/10/02 09:03:27;;;;;;;5.03;2.55;;;;;;;22.31;57.30;101070.75;4613165;27;20043;-63
2023/10/02 09:05:49;;;;;;;4.78;2.80;;;;;;;22.27;57.27;101061.19;4615402;27;20063;-63
2023/10/02 09:10:28;;;;;;;4.90;2.47;;;;;;;22.30;56.77;101058.41;4604931;27;20519;-63
2023/10/02 09:12:48;;;;;;;4.57;2.40;;;;;;;22.28;57.39;101055.06;4632982;27;20645;-63
2023/10/02 09:15:24;;;;;;;5.10;2.70;;;;;;;22.29;57.37;101058.78;4616064;27;20043;-63
2023/10/02 09:17:44;;;;;;;3.90;2.38;;;;;;;22.31;56.68;101062.94;4632716;27;20042;-63
2023/10/02 09:20:07;;;;;;;6.13;3.03;;;;;;;22.31;57.09;101059.25;4619767;27;20693;-63
2023/10/02 09:22:18;;;;;;;4.65;2.60;;;;;;;22.27;57.17;101043.94;4619899;27;20030;-63
2023/10/02 09:24:29;;;;;;;5.07;2.92;;;;;;;22.28;56.94;101043.56;4617141;27;20114;-63
2023/10/02 09:26:43;;;;;;;4.47;2.45;;;;;;;22.32;57.43;101050.25;4618241;27;20118;-64
2023/10/02 09:29:06;;;;;;;4.00;2.63;;;;;;;22.32;56.75;101052.28;4616739;27;20767;-63
2023/10/02 09:31:17;;;;;;;4.43;2.65;;;;;;;22.31;57.30;101039.94;4618339;27;20887;-63
2023/10/02 09:33:28;;;;;;;5.82;2.85;;;;;;;22.18;57.40;101030.56;4616425;27;20031;-63
2023/10/02 09:37:55;;;;;;;5.00;2.83;;;;;;;22.28;57.97;101031.25;4617621;27;20063;-63
2023/10/02 09:40:16;;;;;;;4.47;2.55;;;;;;;22.30;57.80;101035.41;4617543;27;20111;-63
2023/10/02 09:42:30;;;;;;;4.82;2.92;;;;;;;22.29;56.98;101021.41;4606019;27;20088;-63
2023/10/02 09:44:45;;;;;;;5.28;2.65;;;;;;;22.35;57.20;101037.16;4619162;27;20019;-63
2023/10/02 09:46:56;;;;;;;5.57;2.80;;;;;;;22.35;57.37;101040.91;4617428;27;20066;-64
2023/10/02 09:49:21;;;;;;;5.10;2.80;;;;;;;22.30;57.39;101023.91;4618750;27;20070;-63
2023/10/02 09:52:10;;;;;;;4.85;2.50;;;;;;;22.35;58.02;101019.91;4617615;27;20036;-63
2023/10/02 09:54:34;;;;;;;4.78;2.63;;;;;;;22.36;58.69;101021.59;4617857;27;20039;-63
2023/10/02 09:57:04;;;;;;;5.03;2.63;;;;;;;22.38;58.19;101017.16;4616346;27;20874;-64
2023/10/02 09:59:18;;;;;;;4.70;2.70;;;;;;;22.38;57.86;101020.03;4604944;27;20040;-63
2023/10/02 10:01:34;;;;;;;3.90;2.33;;;;;;;22.37;58.12;101001.09;4615745;27;20892;-63
2023/10/02 10:03:51;;;;;;;5.40;2.50;;;;;;;22.35;58.15;100996.91;4618110;27;20031;-63
2023/10/02 10:06:08;;;;;;;5.55;2.85;;;;;;;22.40;58.31;101009.00;4618420;27;20504;-64
2023/10/02 10:08:18;;;;;;;4.80;2.88;;;;;;;22.40;58.56;101005.25;4614811;27;20050;-64
2023/10/02 10:13:12;;;;;;;5.05;2.80;;;;;;;22.40;56.96;101002.41;4616804;27;20876;-64
2023/10/02 10:15:23;;;;;;;7.63;3.70;;;;;;;22.44;57.63;101012.78;4617711;27;20060;-64
2023/10/02 10:18:12;;;;;;;6.88;3.60;;;;;;;22.44;58.26;101011.97;4614195;27;20069;-64
2023/10/02 10:20:25;;;;;;;5.05;2.70;;;;;;;22.44;57.85;101006.22;4614129;27;20051;-64
2023/10/02 10:22:38;;;;;;;4.05;2.30;;;;;;;22.45;58.50;101007.88;4606153;27;20097;-64
2023/10/02 10:24:55;;;;;;;4.28;2.65;;;;;;;22.41;58.55;100996.28;4617163;27;20031;-65
2023/10/02 10:27:07;;;;;;;3.85;2.25;;;;;;;22.41;58.57;100992.53;4616891;27;20022;-65
2023/10/02 10:29:41;;;;;;;4.93;2.45;;;;;;;22.47;58.34;101003.41;4617265;27;20622;-64
2023/10/02 10:31:55;;;;;;;4.78;2.63;;;;;;;22.47;58.59;101002.59;4615015;27;20031;-64
2023/10/02 10:34:06;;;;;;;4.45;2.40;;;;;;;22.47;57.92;101002.59;4615239;27;20826;-64
2023/10/02 10:36:46;;;;;;;4.38;2.47;;;;;;;22.47;58.48;100993.97;4617080;27;20054;-64
2023/10/02 10:38:57;;;;;;;4.13;2.33;;;;;;;22.46;57.58;100998.03;4615715;27;20054;-64
2023/10/02 10:41:27;;;;;;;4.38;2.50;;;;;;;22.51;57.75;100994.88;4615601;27;20030;-63
2023/10/02 10:46:12;;;;;;;3.92;2.30;;;;;;;22.50;57.37;100996.09;4617743;27;20028;-64
2023/10/02 10:48:23;;;;;;;4.57;2.55;;;;;;;22.49;57.94;100991.53;4615728;27;20123;-64
2023/10/02 10:50:33;;;;;;;4.15;2.38;;;;;;;22.52;57.15;100997.41;4618307;27;20149;-64
2023/10/02 10:52:44;;;;;;;3.78;2.30;;;;;;;22.51;57.88;100992.00;4616544;27;20037;-64
2023/10/02 10:54:54;;;;;;;4.47;2.30;;;;;;;22.51;57.93;100998.59;4616334;27;20132;-65